createdAt,value
2022-08-09T00:00:00.870Z,2.25
2022-08-09T00:02:49.539Z,1.75
2022-08-09T00:06:19.834Z,1.00
2022-08-09T00:08:32.211Z,1.75
2022-08-09T00:11:05.986Z,1.50
2022-08-09T00:13:50.441Z,1.25
2022-08-09T00:16:26.378Z,2.75
2022-08-09T00:19:10.423Z,2.00
2022-08-09T00:21:56.157Z,1.25
2022-08-09T00:24:27.197Z,2.50
2022-08-09T00:26:57.226Z,3.75
2022-08-09T00:30:10.336Z,1.75
2022-08-09T00:32:27.237Z,1.75
2022-08-09T00:34:56.647Z,0.00
2022-08-09T00:37:26.320Z,1.50
2022-08-09T00:40:12.362Z,3.00
2022-08-09T00:44:09.870Z,0.00
2022-08-09T00:45:34.875Z,1.25
2022-08-09T00:48:04.655Z,2.00
2022-08-09T00:50:33.678Z,1.50
2022-08-09T00:53:10.135Z,1.75
2022-08-09T00:56:05.338Z,3.00
2022-08-09T00:58:30.524Z,2.00
2022-08-09T01:00:59.811Z,2.50
2022-08-09T01:03:36.520Z,2.50
2022-08-09T01:06:54.381Z,2.00
2022-08-09T01:09:54.265Z,2.75
2022-08-09T01:12:35.668Z,2.50
2022-08-09T01:15:16.899Z,1.50
2022-08-09T01:17:51.901Z,1.00
2022-08-09T01:20:45.671Z,2.00
2022-08-09T01:24:02.044Z,1.00
2022-08-09T01:26:53.171Z,1.00
2022-08-09T01:29:41.258Z,2.00
2022-08-09T01:32:31.771Z,1.00
2022-08-09T01:35:38.627Z,0.50
2022-08-09T01:38:16.721Z,1.75
2022-08-09T01:41:26.151Z,1.75
2022-08-09T01:43:59.278Z,1.50
2022-08-09T01:46:47.101Z,2.00
2022-08-09T01:49:18.161Z,3.00
2022-08-09T01:52:07.123Z,3.25
2022-08-09T01:54:44.553Z,2.75
2022-08-09T01:57:16.558Z,2.00
2022-08-09T01:59:51.651Z,3.00
2022-08-09T02:02:31.028Z,2.00
2022-08-09T02:05:05.518Z,1.50
2022-08-09T02:08:39.694Z,1.75
2022-08-09T02:10:39.512Z,3.33
2022-08-09T02:13:10.258Z,1.50
2022-08-09T02:15:49.428Z,1.75
2022-08-09T02:18:23.706Z,1.00
2022-08-09T02:21:01.220Z,2.25
2022-08-09T02:23:39.746Z,3.00
2022-08-09T02:26:24.822Z,1.50
2022-08-09T02:29:00.726Z,1.50
2022-08-09T02:31:35.684Z,2.75
2022-08-09T02:34:13.839Z,3.75
2022-08-09T02:37:02.679Z,2.00
2022-08-09T02:39:42.460Z,2.00
2022-08-09T02:42:32.172Z,2.50
2022-08-09T02:45:05.034Z,2.25
2022-08-09T02:47:57.299Z,0.00
2022-08-09T02:50:29.615Z,1.00
2022-08-09T02:53:26.382Z,2.00
2022-08-09T02:55:59.739Z,2.25
2022-08-09T02:58:35.764Z,1.50
2022-08-09T03:01:08.190Z,0.75
2022-08-09T03:04:18.203Z,2.25
2022-08-09T03:06:29.644Z,2.00
2022-08-09T03:08:59.603Z,1.00
2022-08-09T03:11:29.693Z,1.50
2022-08-09T03:14:18.630Z,2.50
2022-08-09T03:16:48.264Z,1.50
2022-08-09T03:19:59.353Z,1.75
2022-08-09T03:22:12.188Z,3.75
2022-08-09T03:25:05.880Z,1.75
2022-08-09T03:27:45.406Z,1.75
2022-08-09T03:30:33.918Z,3.00
2022-08-09T03:33:15.314Z,0.50
2022-08-09T03:36:13.484Z,0.50
2022-08-09T03:38:37.317Z,1.50
2022-08-09T03:41:15.449Z,2.25
2022-08-09T03:44:02.765Z,3.50
2022-08-09T03:46:32.834Z,4.25
2022-08-09T03:49:03.769Z,4.00
2022-08-09T03:51:57.381Z,1.00
2022-08-09T03:54:29.096Z,2.50
2022-08-09T03:57:01.257Z,2.75
2022-08-09T03:59:43.041Z,1.00
2022-08-09T04:02:30.126Z,1.75
2022-08-09T04:05:01.227Z,1.00
2022-08-09T04:07:52.222Z,1.75
2022-08-09T04:10:28.851Z,1.50
2022-08-09T04:13:04.091Z,1.25
2022-08-09T04:16:17.751Z,1.25
2022-08-09T04:18:22.412Z,1.50
2022-08-09T04:20:53.084Z,0.75
2022-08-09T04:23:24.647Z,2.00
2022-08-09T04:25:56.967Z,1.00
2022-08-09T04:28:34.163Z,1.75
2022-08-09T04:31:09.770Z,0.75
2022-08-09T04:33:52.158Z,1.00
2022-08-09T04:36:26.646Z,2.00
2022-08-09T04:38:55.271Z,1.00
2022-08-09T04:41:24.393Z,1.20
2022-08-09T04:44:06.865Z,1.00
2022-08-09T04:46:58.962Z,2.00
2022-08-09T04:49:53.514Z,1.00
2022-08-09T04:52:28.600Z,1.40
2022-08-09T04:54:57.719Z,1.00
2022-08-09T04:57:27.161Z,1.00
2022-08-09T05:00:16.681Z,1.00
2022-08-09T05:02:52.469Z,2.00
2022-08-09T05:05:32.205Z,3.00
2022-08-09T05:08:09.412Z,1.40
2022-08-09T05:10:42.696Z,0.80
2022-08-09T05:13:10.690Z,1.80
2022-08-09T05:15:47.708Z,0.80
2022-08-09T05:18:37.520Z,2.20
2022-08-09T05:21:13.499Z,2.00
2022-08-09T05:24:00.172Z,1.60
2022-08-09T05:26:45.427Z,2.20
2022-08-09T05:29:21.506Z,1.80
2022-08-09T05:31:57.328Z,1.60
2022-08-09T05:34:32.317Z,1.60
2022-08-09T05:37:06.182Z,2.00
2022-08-09T05:39:43.278Z,1.80
2022-08-09T05:42:17.629Z,2.00
2022-08-09T05:44:52.576Z,2.00
2022-08-09T05:47:22.788Z,2.20
2022-08-09T05:50:25.765Z,2.00
2022-08-09T05:52:44.480Z,2.40
2022-08-09T05:55:24.023Z,4.00
2022-08-09T05:57:56.493Z,2.00
2022-08-09T06:00:34.279Z,3.00
2022-08-09T06:03:04.014Z,2.80
2022-08-09T06:05:57.765Z,1.00
2022-08-09T06:08:28.292Z,1.40
2022-08-09T06:10:58.248Z,1.40
2022-08-09T06:13:28.609Z,2.40
2022-08-09T06:16:04.998Z,3.00
2022-08-09T06:18:33.819Z,1.60
2022-08-09T06:21:02.162Z,1.00
2022-08-09T06:23:55.104Z,2.00
2022-08-09T06:26:22.777Z,2.40
2022-08-09T06:29:00.873Z,2.00
2022-08-09T06:31:40.285Z,2.00
2022-08-09T06:34:22.643Z,2.20
2022-08-09T06:36:59.085Z,3.00
2022-08-09T06:39:49.056Z,2.00
2022-08-09T06:42:24.515Z,3.00
2022-08-09T06:45:00.350Z,2.40
2022-08-09T06:47:40.067Z,2.80
2022-08-09T06:50:15.003Z,2.00
2022-08-09T06:52:48.837Z,1.60
2022-08-09T06:55:22.435Z,2.00
2022-08-09T06:58:02.814Z,2.00
2022-08-09T07:00:50.386Z,1.00
2022-08-09T07:03:27.806Z,1.00
2022-08-09T07:06:03.497Z,0.00
2022-08-09T07:08:37.226Z,0.00
2022-08-09T07:11:07.954Z,0.00
2022-08-09T07:13:45.179Z,0.20
2022-08-09T07:16:42.129Z,0.20
2022-08-09T07:19:18.554Z,0.20
2022-08-09T07:21:57.386Z,0.40
2022-08-09T07:24:40.200Z,0.60
2022-08-09T07:27:27.303Z,0.20
2022-08-09T07:30:01.542Z,1.00
2022-08-09T07:32:33.268Z,0.60
2022-08-09T07:35:08.018Z,1.00
2022-08-09T07:37:45.465Z,1.00
2022-08-09T07:40:20.523Z,0.60
2022-08-09T07:42:57.283Z,0.00
2022-08-09T07:45:37.974Z,1.00
2022-08-09T07:48:28.393Z,0.20
2022-08-09T07:51:09.507Z,1.00
2022-08-09T07:54:04.742Z,0.40
2022-08-09T07:56:45.164Z,0.00
2022-08-09T07:59:25.393Z,0.60
2022-08-09T08:02:06.923Z,0.80
2022-08-09T08:04:37.352Z,0.00
2022-08-09T08:07:27.195Z,0.00
2022-08-09T08:09:55.142Z,0.00
2022-08-09T08:12:42.632Z,0.20
2022-08-09T08:15:18.173Z,0.00
2022-08-09T08:17:55.615Z,0.20
2022-08-09T08:20:30.563Z,0.00
2022-08-09T08:23:06.292Z,0.00
2022-08-09T08:25:50.485Z,1.40
2022-08-09T08:28:35.087Z,0.00
2022-08-09T08:31:14.111Z,1.00
2022-08-09T08:33:52.765Z,0.00
2022-08-09T08:36:28.713Z,0.00
2022-08-09T08:38:56.881Z,0.00
2022-08-09T08:41:42.191Z,0.40
2022-08-09T08:44:13.933Z,0.00
2022-08-09T08:47:03.398Z,0.00
2022-08-09T08:49:38.656Z,0.00
2022-08-09T08:52:52.827Z,0.00
2022-08-09T08:55:09.383Z,0.20
2022-08-09T08:57:37.905Z,0.00
2022-08-09T09:00:16.905Z,1.00
2022-08-09T09:02:52.527Z,0.40
2022-08-09T09:05:57.579Z,1.00
2022-08-09T09:08:30.047Z,0.00
2022-08-09T09:11:04.287Z,0.00
2022-08-09T09:13:57.351Z,0.00
2022-08-09T09:16:33.821Z,0.00
2022-08-09T09:19:36.774Z,1.00
2022-08-09T09:22:15.945Z,0.00
2022-08-09T09:24:55.480Z,0.40
2022-08-09T09:28:05.101Z,0.00
2022-08-09T09:30:37.996Z,0.00
2022-08-09T09:33:15.912Z,0.80
2022-08-09T09:36:11.924Z,0.00
2022-08-09T09:38:57.428Z,0.00
2022-08-09T09:41:28.034Z,0.00
2022-08-09T09:44:11.621Z,0.00
2022-08-09T09:46:50.858Z,0.00
2022-08-09T09:49:56.039Z,0.00
2022-08-09T09:52:16.664Z,0.00
2022-08-09T09:55:24.347Z,0.00
2022-08-09T09:58:16.530Z,0.00
2022-08-09T10:01:04.650Z,0.00
2022-08-09T10:03:57.801Z,0.00
2022-08-09T10:06:32.326Z,0.00
2022-08-09T10:09:21.784Z,0.00
2022-08-09T10:12:14.230Z,0.00
2022-08-09T10:14:49.053Z,0.00
2022-08-09T10:17:40.389Z,0.00
2022-08-09T10:20:32.458Z,0.00
2022-08-09T10:23:17.068Z,0.00
2022-08-09T10:26:06.487Z,0.00
2022-08-09T10:28:39.042Z,0.00
2022-08-09T10:34:08.639Z,0.00
2022-08-09T10:36:50.106Z,0.00
2022-08-09T10:39:19.953Z,0.00
2022-08-09T10:41:48.363Z,0.00
2022-08-09T10:44:23.007Z,0.00
2022-08-09T10:48:26.218Z,0.00
2022-08-09T10:51:11.315Z,0.00
2022-08-09T10:54:02.082Z,0.80
2022-08-09T10:56:41.246Z,0.00
2022-08-09T10:59:31.063Z,0.00
2022-08-09T11:03:16.418Z,0.40
2022-08-09T11:05:13.736Z,0.00
2022-08-09T11:07:57.647Z,1.00
2022-08-09T11:10:47.038Z,1.60
2022-08-09T11:13:51.146Z,0.00
2022-08-09T11:16:35.148Z,0.60
2022-08-09T11:19:07.913Z,0.00
2022-08-09T11:21:57.240Z,0.00
2022-08-09T11:25:12.723Z,0.20
2022-08-09T11:28:04.670Z,0.40
2022-08-09T11:30:36.814Z,0.40
2022-08-09T11:33:18.168Z,1.00
2022-08-09T11:36:00.398Z,0.00
2022-08-09T11:38:33.956Z,0.40
2022-08-09T11:41:16.129Z,0.00
2022-08-09T11:43:49.254Z,0.00
2022-08-09T11:46:26.844Z,1.00
2022-08-09T11:49:05.185Z,0.00
2022-08-09T11:53:03.270Z,0.00
2022-08-09T11:55:52.201Z,0.00
2022-08-09T11:58:32.459Z,0.00
2022-08-09T12:01:37.856Z,0.00
2022-08-09T12:04:04.218Z,0.00
2022-08-09T12:06:35.122Z,0.00
2022-08-09T12:09:19.563Z,0.00
2022-08-09T12:12:12.325Z,0.00
2022-08-09T12:15:04.410Z,0.00
2022-08-09T12:17:44.477Z,0.20
2022-08-09T12:20:21.932Z,1.00
2022-08-09T12:22:55.636Z,0.40
2022-08-09T12:25:37.935Z,1.00
2022-08-09T12:29:11.081Z,0.00
2022-08-09T12:31:30.766Z,0.00
2022-08-09T12:34:15.239Z,0.00
2022-08-09T12:36:58.597Z,0.00
2022-08-09T12:39:27.024Z,0.00
2022-08-09T12:41:56.578Z,0.60
2022-08-09T12:44:24.817Z,0.80
2022-08-09T12:46:52.361Z,0.20
2022-08-09T12:49:22.519Z,0.00
2022-08-09T12:52:02.274Z,0.00
2022-08-09T12:56:12.062Z,1.00
2022-08-09T12:57:46.274Z,1.00
2022-08-09T13:00:32.664Z,0.00
2022-08-09T13:03:03.363Z,0.80
2022-08-09T13:05:51.545Z,0.00
2022-08-09T13:08:41.018Z,0.00
2022-08-09T13:11:26.180Z,0.00
2022-08-09T13:14:37.079Z,0.00
2022-08-09T13:16:50.331Z,0.00
2022-08-09T13:20:08.706Z,0.60
2022-08-09T13:22:35.900Z,0.00
2022-08-09T13:25:16.569Z,0.00
2022-08-09T13:27:54.751Z,0.00
2022-08-09T13:30:50.842Z,0.00
2022-08-09T13:33:23.119Z,0.00
2022-08-09T13:36:24.355Z,0.00
2022-08-09T13:38:57.904Z,0.00
2022-08-09T13:41:58.353Z,0.00
2022-08-09T13:44:17.792Z,0.00
2022-08-09T13:47:27.737Z,0.00
2022-08-09T13:49:37.753Z,0.80
2022-08-09T13:52:09.064Z,0.00
2022-08-09T13:54:42.881Z,0.00
2022-08-09T13:57:36.482Z,1.00
2022-08-09T14:00:15.641Z,0.40
2022-08-09T14:03:04.298Z,0.00
2022-08-09T14:05:57.429Z,1.00
2022-08-09T14:08:27.081Z,0.00
2022-08-09T14:10:56.602Z,0.00
2022-08-09T14:14:15.233Z,0.00
2022-08-09T14:16:18.764Z,0.00
2022-08-09T14:18:50.346Z,0.40
2022-08-09T14:21:24.448Z,0.00
2022-08-09T14:23:56.897Z,0.40
2022-08-09T14:26:33.481Z,0.00
2022-08-09T14:29:08.174Z,0.00
2022-08-09T14:31:54.707Z,0.80
2022-08-09T14:34:31.328Z,0.40
2022-08-09T14:37:10.211Z,0.00
2022-08-09T14:39:45.134Z,0.20
2022-08-09T14:42:29.088Z,0.00
2022-08-09T14:44:59.249Z,0.80
2022-08-09T14:47:44.950Z,0.20
2022-08-09T14:50:16.204Z,0.40
2022-08-09T14:52:47.844Z,0.40
2022-08-09T14:55:20.424Z,0.00
2022-08-09T14:57:49.274Z,0.40
2022-08-09T15:00:17.410Z,0.00
2022-08-09T15:02:47.285Z,0.00
2022-08-09T15:05:16.927Z,0.00
2022-08-09T15:07:45.342Z,0.00
2022-08-09T15:10:14.510Z,0.00
2022-08-09T15:12:44.906Z,0.00
2022-08-09T15:15:13.346Z,0.40
2022-08-09T15:17:42.510Z,0.20
2022-08-09T15:21:58.006Z,0.00
2022-08-09T15:24:02.277Z,0.00
2022-08-09T15:25:57.806Z,0.00
2022-08-09T15:28:27.281Z,0.60
2022-08-09T15:31:09.958Z,0.00
2022-08-09T15:34:15.472Z,0.00
2022-08-09T15:36:29.389Z,0.00
2022-08-09T15:38:59.898Z,0.00
2022-08-09T15:41:31.427Z,0.00
2022-08-09T15:44:03.987Z,0.00
2022-08-09T15:46:33.107Z,0.00
2022-08-09T15:49:22.732Z,0.00
2022-08-09T15:52:02.829Z,0.00
2022-08-09T15:54:48.999Z,0.00
2022-08-09T15:57:35.713Z,0.80
2022-08-09T16:00:24.221Z,0.00
2022-08-09T16:02:54.871Z,0.00
2022-08-09T16:05:47.008Z,0.00
2022-08-09T16:08:29.888Z,0.00
2022-08-09T16:10:57.865Z,0.00
2022-08-09T16:14:04.835Z,0.80
2022-08-09T16:16:18.510Z,0.00
2022-08-09T16:18:47.889Z,0.00
2022-08-09T16:21:17.265Z,0.80
2022-08-09T16:24:01.661Z,0.00
2022-08-09T16:26:34.408Z,0.00
2022-08-09T16:29:11.120Z,0.60
2022-08-09T16:32:19.794Z,1.00
2022-08-09T16:34:54.629Z,0.40
2022-08-09T16:37:54.706Z,0.00
2022-08-09T16:40:20.469Z,0.00
2022-08-09T16:42:58.854Z,0.00
2022-08-09T16:45:27.151Z,0.00
2022-08-09T16:48:39.646Z,0.00
2022-08-09T16:50:59.364Z,0.00
2022-08-09T16:53:34.148Z,0.00
2022-08-09T16:56:07.524Z,0.00
2022-08-09T16:58:39.849Z,0.00
2022-08-09T17:01:19.334Z,0.00
2022-08-09T17:03:51.457Z,0.00
2022-08-09T17:06:31.155Z,0.00
2022-08-09T17:09:12.051Z,0.20
2022-08-09T17:11:51.241Z,0.20
2022-08-09T17:14:28.136Z,0.00
2022-08-09T17:17:02.435Z,0.00
2022-08-09T17:20:12.590Z,0.00
2022-08-09T17:22:35.861Z,0.00
2022-08-09T17:25:10.084Z,0.00
2022-08-09T17:27:49.443Z,0.00
2022-08-09T17:30:25.538Z,0.00
2022-08-09T17:32:54.914Z,0.00
2022-08-09T17:35:25.607Z,0.00
2022-08-09T17:38:02.258Z,0.00
2022-08-09T17:40:41.464Z,0.60
2022-08-09T17:43:34.202Z,0.00
2022-08-09T17:46:12.370Z,0.00
2022-08-09T17:48:51.909Z,0.00
2022-08-09T17:51:20.947Z,0.00
2022-08-09T17:53:53.018Z,0.20
2022-08-09T17:56:27.855Z,0.00
2022-08-09T17:59:02.941Z,0.00
2022-08-09T18:02:03.613Z,0.00
2022-08-09T18:04:20.377Z,0.60
2022-08-09T18:06:54.412Z,0.50
2022-08-09T18:09:40.135Z,0.00
2022-08-09T18:12:17.410Z,0.00
2022-08-09T18:14:54.161Z,0.50
2022-08-09T18:18:01.626Z,0.00
2022-08-09T18:20:58.919Z,0.00
2022-08-09T18:23:07.379Z,1.00
2022-08-09T18:25:52.660Z,0.00
2022-08-09T18:30:34.455Z,0.25
2022-08-09T18:31:24.693Z,0.00
2022-08-09T18:34:00.063Z,0.00
2022-08-09T18:36:34.564Z,0.00
2022-08-09T18:39:06.418Z,0.25
2022-08-09T18:41:35.633Z,0.00
2022-08-09T18:44:13.039Z,0.00
2022-08-09T18:46:51.210Z,0.00
2022-08-09T18:49:32.389Z,0.00
2022-08-09T18:52:10.072Z,1.00
2022-08-09T18:54:42.243Z,0.00
2022-08-09T18:57:22.395Z,0.00
2022-08-09T19:00:03.059Z,0.00
2022-08-09T19:02:32.606Z,0.25
2022-08-09T19:05:14.872Z,1.00
2022-08-09T19:07:59.250Z,0.00
2022-08-09T19:10:36.977Z,0.00
2022-08-09T19:13:23.038Z,1.00
2022-08-09T19:15:56.217Z,0.50
2022-08-09T19:18:33.710Z,0.75
2022-08-09T19:21:09.106Z,1.00
2022-08-09T19:24:37.438Z,0.50
2022-08-09T19:26:35.113Z,0.00
2022-08-09T19:29:15.539Z,0.00
2022-08-09T19:31:49.589Z,1.00
2022-08-09T19:34:22.494Z,0.00
2022-08-09T19:36:58.348Z,0.50
2022-08-09T19:39:29.079Z,0.00
2022-08-09T19:42:19.141Z,1.00
2022-08-09T19:44:50.630Z,0.00
2022-08-09T19:47:23.537Z,0.25
2022-08-09T19:50:09.963Z,1.00
2022-08-09T19:52:49.602Z,0.00
2022-08-09T19:55:25.855Z,0.25
2022-08-09T19:57:58.751Z,0.25
2022-08-09T20:00:26.431Z,0.00
2022-08-09T20:04:12.549Z,0.75
2022-08-09T20:05:46.682Z,0.00
2022-08-09T20:08:33.578Z,0.00
2022-08-09T20:11:04.741Z,1.50
2022-08-09T20:13:37.037Z,1.00
2022-08-09T20:16:38.492Z,1.00
2022-08-09T20:19:42.037Z,0.00
2022-08-09T20:21:54.869Z,1.00
2022-08-09T20:24:31.929Z,0.00
2022-08-09T20:27:08.387Z,0.25
2022-08-09T20:29:38.911Z,0.00
2022-08-09T20:32:29.301Z,0.00
2022-08-09T20:34:59.894Z,0.00
2022-08-09T20:38:18.609Z,0.00
2022-08-09T20:40:26.237Z,0.00
2022-08-09T20:43:00.367Z,0.75
2022-08-09T20:45:59.419Z,0.00
2022-08-09T20:48:38.551Z,0.00
2022-08-09T20:51:07.399Z,0.00
2022-08-09T20:53:48.942Z,0.50
2022-08-09T20:56:21.279Z,0.50
2022-08-09T20:58:54.202Z,0.00
2022-08-09T21:01:34.932Z,0.50
2022-08-09T21:05:54.936Z,0.00
2022-08-09T21:06:57.874Z,0.50
2022-08-09T21:09:41.717Z,0.00
2022-08-09T21:14:49.004Z,0.50
2022-08-09T21:18:23.974Z,0.50
2022-08-09T21:20:23.070Z,1.50
2022-08-09T21:22:54.846Z,0.00
2022-08-09T21:25:44.142Z,0.00
2022-08-09T21:28:35.094Z,0.00
2022-08-09T21:31:16.355Z,0.00
2022-08-09T21:33:52.528Z,0.00
2022-08-09T21:36:27.854Z,0.00
2022-08-09T21:38:59.300Z,1.00
2022-08-09T21:42:03.721Z,0.00
2022-08-09T21:44:32.725Z,0.00
2022-08-09T21:47:05.493Z,1.00
2022-08-09T21:49:40.149Z,0.00
2022-08-09T21:52:16.970Z,0.00
2022-08-09T21:54:50.875Z,0.00
2022-08-09T21:57:39.335Z,0.00
2022-08-09T22:00:25.540Z,0.00
2022-08-09T22:02:59.335Z,0.00
2022-08-09T22:05:37.637Z,0.25
2022-08-09T22:08:14.904Z,1.00
2022-08-09T22:11:50.355Z,0.00
2022-08-09T22:13:35.392Z,0.00
2022-08-09T22:16:07.583Z,0.25
2022-08-09T22:18:37.836Z,2.50
2022-08-09T22:21:09.304Z,1.00
2022-08-09T22:23:59.011Z,0.00
2022-08-09T22:26:35.223Z,0.00
2022-08-09T22:29:08.890Z,0.00
2022-08-09T22:31:44.659Z,0.00
2022-08-09T22:34:25.539Z,0.00
2022-08-09T22:36:55.395Z,0.25
2022-08-09T22:39:57.569Z,1.00
2022-08-09T22:42:21.259Z,0.00
2022-08-09T22:45:02.328Z,0.00
2022-08-09T22:48:13.942Z,0.00
2022-08-09T22:50:30.355Z,0.00
2022-08-09T22:52:58.946Z,0.00
2022-08-09T22:56:05.824Z,1.00
2022-08-09T22:58:20.138Z,0.00
2022-08-09T23:00:59.130Z,0.00
2022-08-09T23:03:31.284Z,0.00
2022-08-09T23:06:29.949Z,0.00
2022-08-09T23:09:08.044Z,0.00
2022-08-09T23:11:35.963Z,0.00
2022-08-09T23:14:09.888Z,0.50
2022-08-09T23:16:38.369Z,1.00
2022-08-09T23:19:05.962Z,0.00
2022-08-09T23:21:35.926Z,0.75
2022-08-09T23:24:07.286Z,0.00
2022-08-09T23:26:39.640Z,0.00
2022-08-09T23:29:11.759Z,0.25
2022-08-09T23:31:40.764Z,0.25
2022-08-09T23:34:09.482Z,0.50
2022-08-09T23:36:37.959Z,0.00
2022-08-09T23:39:06.794Z,0.00
2022-08-09T23:41:35.727Z,0.00
2022-08-09T23:44:03.625Z,0.25
2022-08-09T23:46:32.003Z,0.00
2022-08-09T23:49:00.402Z,0.50
2022-08-09T23:51:28.794Z,0.00
2022-08-09T23:54:02.387Z,0.00
2022-08-09T23:56:53.465Z,0.25
2022-08-09T23:59:21.401Z,0.00
